sensor_id;sensor_type;location;lat;lon;timestamp;P1;durP1;ratioP1;P2;durP2;ratioP2
2772;SDS011;1394;47.044;15.744;2023-12-20T00:01:03;30.40;;;6.20;;
2772;SDS011;1394;47.044;15.744;2023-12-20T00:03:33;26.17;;;4.23;;
2772;SDS011;1394;47.044;15.744;2023-12-20T00:06:02;26.70;;;4.00;;
2772;SDS011;1394;47.044;15.744;2023-12-20T00:08:31;25.53;;;3.83;;
2772;SDS011;1394;47.044;15.744;2023-12-20T00:10:58;27.20;;;3.97;;
2772;SDS011;1394;47.044;15.744;2023-12-20T00:13:26;25.50;;;3.00;;
2772;SDS011;1394;47.044;15.744;2023-12-20T00:15:53;25.57;;;3.80;;
2772;SDS011;1394;47.044;15.744;2023-12-20T00:18:21;26.63;;;3.70;;
2772;SDS011;1394;47.044;15.744;2023-12-20T00:20:48;25.07;;;3.03;;
2772;SDS011;1394;47.044;15.744;2023-12-20T00:23:15;26.30;;;3.90;;
2772;SDS011;1394;47.044;15.744;2023-12-20T00:25:44;25.20;;;2.87;;
2772;SDS011;1394;47.044;15.744;2023-12-20T00:28:12;24.23;;;2.60;;
2772;SDS011;1394;47.044;15.744;2023-12-20T00:30:40;25.33;;;3.37;;
2772;SDS011;1394;47.044;15.744;2023-12-20T00:33:07;25.17;;;3.57;;
2772;SDS011;1394;47.044;15.744;2023-12-20T00:35:34;26.00;;;3.40;;
2772;SDS011;1394;47.044;15.744;2023-12-20T00:38:03;25.10;;;3.13;;
2772;SDS011;1394;47.044;15.744;2023-12-20T00:40:32;27.93;;;3.00;;
2772;SDS011;1394;47.044;15.744;2023-12-20T00:43:00;25.00;;;2.90;;
2772;SDS011;1394;47.044;15.744;2023-12-20T00:45:28;24.93;;;2.87;;
2772;SDS011;1394;47.044;15.744;2023-12-20T00:47:55;24.20;;;2.57;;
2772;SDS011;1394;47.044;15.744;2023-12-20T00:50:22;25.40;;;2.63;;
2772;SDS011;1394;47.044;15.744;2023-12-20T00:52:49;24.80;;;2.83;;
2772;SDS011;1394;47.044;15.744;2023-12-20T00:55:17;26.00;;;3.17;;
2772;SDS011;1394;47.044;15.744;2023-12-20T00:57:44;26.30;;;3.00;;
2772;SDS011;1394;47.044;15.744;2023-12-20T01:00:14;24.33;;;2.47;;
2772;SDS011;1394;47.044;15.744;2023-12-20T01:02:41;24.77;;;2.67;;
2772;SDS011;1394;47.044;15.744;2023-12-20T01:05:08;24.87;;;2.57;;
2772;SDS011;1394;47.044;15.744;2023-12-20T01:07:35;25.07;;;2.50;;
2772;SDS011;1394;47.044;15.744;2023-12-20T01:10:03;24.00;;;2.17;;
2772;SDS011;1394;47.044;15.744;2023-12-20T01:12:31;24.87;;;2.40;;
2772;SDS011;1394;47.044;15.744;2023-12-20T01:14:58;24.43;;;2.33;;
2772;SDS011;1394;47.044;15.744;2023-12-20T01:17:29;24.57;;;2.50;;
2772;SDS011;1394;47.044;15.744;2023-12-20T01:19:56;24.10;;;2.40;;
2772;SDS011;1394;47.044;15.744;2023-12-20T01:22:24;24.27;;;2.50;;
2772;SDS011;1394;47.044;15.744;2023-12-20T01:24:53;24.00;;;2.27;;
2772;SDS011;1394;47.044;15.744;2023-12-20T01:27:20;24.60;;;2.67;;
2772;SDS011;1394;47.044;15.744;2023-12-20T01:29:47;24.77;;;2.83;;
2772;SDS011;1394;47.044;15.744;2023-12-20T01:32:14;25.20;;;2.80;;
2772;SDS011;1394;47.044;15.744;2023-12-20T01:34:44;24.10;;;2.27;;
2772;SDS011;1394;47.044;15.744;2023-12-20T01:37:13;23.93;;;2.37;;
2772;SDS011;1394;47.044;15.744;2023-12-20T01:39:41;24.10;;;2.20;;
2772;SDS011;1394;47.044;15.744;2023-12-20T01:42:08;24.30;;;2.37;;
2772;SDS011;1394;47.044;15.744;2023-12-20T01:44:35;24.70;;;2.73;;
2772;SDS011;1394;47.044;15.744;2023-12-20T01:47:03;25.00;;;2.23;;
2772;SDS011;1394;47.044;15.744;2023-12-20T01:49:30;24.63;;;2.63;;
2772;SDS011;1394;47.044;15.744;2023-12-20T01:51:59;24.47;;;2.30;;
2772;SDS011;1394;47.044;15.744;2023-12-20T01:54:28;24.40;;;2.57;;
2772;SDS011;1394;47.044;15.744;2023-12-20T01:56:57;24.57;;;2.67;;
2772;SDS011;1394;47.044;15.744;2023-12-20T01:59:24;25.17;;;2.50;;
2772;SDS011;1394;47.044;15.744;2023-12-20T02:01:52;25.17;;;2.70;;
2772;SDS011;1394;47.044;15.744;2023-12-20T02:04:19;25.10;;;2.50;;
2772;SDS011;1394;47.044;15.744;2023-12-20T02:06:46;24.17;;;2.37;;
2772;SDS011;1394;47.044;15.744;2023-12-20T02:09:18;24.40;;;2.50;;
2772;SDS011;1394;47.044;15.744;2023-12-20T02:11:45;25.03;;;2.60;;
2772;SDS011;1394;47.044;15.744;2023-12-20T02:14:14;25.67;;;3.07;;
2772;SDS011;1394;47.044;15.744;2023-12-20T02:16:43;25.33;;;2.60;;
2772;SDS011;1394;47.044;15.744;2023-12-20T02:19:13;25.20;;;2.20;;
2772;SDS011;1394;47.044;15.744;2023-12-20T02:21:42;24.67;;;2.40;;
2772;SDS011;1394;47.044;15.744;2023-12-20T02:24:09;24.57;;;2.57;;
2772;SDS011;1394;47.044;15.744;2023-12-20T02:26:37;24.77;;;2.17;;
2772;SDS011;1394;47.044;15.744;2023-12-20T02:29:05;23.80;;;2.20;;
2772;SDS011;1394;47.044;15.744;2023-12-20T02:31:34;24.27;;;2.30;;
2772;SDS011;1394;47.044;15.744;2023-12-20T02:34:01;25.37;;;2.50;;
2772;SDS011;1394;47.044;15.744;2023-12-20T02:36:28;24.50;;;2.37;;
2772;SDS011;1394;47.044;15.744;2023-12-20T02:38:57;24.73;;;2.73;;
2772;SDS011;1394;47.044;15.744;2023-12-20T02:41:24;24.67;;;2.73;;
2772;SDS011;1394;47.044;15.744;2023-12-20T02:43:53;24.30;;;2.20;;
2772;SDS011;1394;47.044;15.744;2023-12-20T02:46:22;25.47;;;2.40;;
2772;SDS011;1394;47.044;15.744;2023-12-20T02:48:50;24.40;;;2.30;;
2772;SDS011;1394;47.044;15.744;2023-12-20T02:51:17;24.10;;;2.53;;
2772;SDS011;1394;47.044;15.744;2023-12-20T02:53:44;24.40;;;2.47;;
2772;SDS011;1394;47.044;15.744;2023-12-20T02:56:13;24.20;;;2.30;;
2772;SDS011;1394;47.044;15.744;2023-12-20T02:58:40;24.03;;;2.20;;
2772;SDS011;1394;47.044;15.744;2023-12-20T03:01:08;24.10;;;2.03;;
2772;SDS011;1394;47.044;15.744;2023-12-20T03:03:35;24.70;;;2.20;;
2772;SDS011;1394;47.044;15.744;2023-12-20T03:06:01;23.93;;;2.20;;
2772;SDS011;1394;47.044;15.744;2023-12-20T03:08:30;24.40;;;2.33;;
2772;SDS011;1394;47.044;15.744;2023-12-20T03:10:58;23.93;;;2.13;;
2772;SDS011;1394;47.044;15.744;2023-12-20T03:13:29;23.80;;;2.03;;
2772;SDS011;1394;47.044;15.744;2023-12-20T03:15:56;24.47;;;2.27;;
2772;SDS011;1394;47.044;15.744;2023-12-20T03:18:24;23.70;;;2.03;;
2772;SDS011;1394;47.044;15.744;2023-12-20T03:20:53;24.30;;;2.10;;
2772;SDS011;1394;47.044;15.744;2023-12-20T03:23:20;24.10;;;2.37;;
2772;SDS011;1394;47.044;15.744;2023-12-20T03:25:47;24.23;;;2.23;;
2772;SDS011;1394;47.044;15.744;2023-12-20T03:28:15;24.17;;;2.40;;
2772;SDS011;1394;47.044;15.744;2023-12-20T03:30:46;23.70;;;2.10;;
2772;SDS011;1394;47.044;15.744;2023-12-20T03:33:14;24.63;;;2.43;;
2772;SDS011;1394;47.044;15.744;2023-12-20T03:35:41;23.70;;;2.13;;
2772;SDS011;1394;47.044;15.744;2023-12-20T03:38:08;25.97;;;2.67;;
2772;SDS011;1394;47.044;15.744;2023-12-20T03:40:36;24.40;;;2.37;;
2772;SDS011;1394;47.044;15.744;2023-12-20T03:43:04;24.43;;;2.60;;
2772;SDS011;1394;47.044;15.744;2023-12-20T03:45:31;24.60;;;2.47;;
2772;SDS011;1394;47.044;15.744;2023-12-20T03:48:00;24.20;;;2.60;;
2772;SDS011;1394;47.044;15.744;2023-12-20T03:50:27;24.20;;;2.27;;
2772;SDS011;1394;47.044;15.744;2023-12-20T03:52:54;24.13;;;2.10;;
2772;SDS011;1394;47.044;15.744;2023-12-20T03:55:21;24.73;;;2.33;;
2772;SDS011;1394;47.044;15.744;2023-12-20T03:57:49;26.10;;;2.77;;
2772;SDS011;1394;47.044;15.744;2023-12-20T04:00:16;24.10;;;2.40;;
2772;SDS011;1394;47.044;15.744;2023-12-20T04:02:43;24.30;;;2.30;;
2772;SDS011;1394;47.044;15.744;2023-12-20T04:05:12;24.97;;;2.50;;
2772;SDS011;1394;47.044;15.744;2023-12-20T04:07:39;24.50;;;2.33;;
2772;SDS011;1394;47.044;15.744;2023-12-20T04:10:06;24.80;;;2.50;;
2772;SDS011;1394;47.044;15.744;2023-12-20T04:12:34;24.77;;;2.33;;
2772;SDS011;1394;47.044;15.744;2023-12-20T04:15:01;24.77;;;2.27;;
2772;SDS011;1394;47.044;15.744;2023-12-20T04:17:34;24.03;;;2.20;;
2772;SDS011;1394;47.044;15.744;2023-12-20T04:20:01;24.57;;;2.50;;
2772;SDS011;1394;47.044;15.744;2023-12-20T04:22:29;24.20;;;2.47;;
2772;SDS011;1394;47.044;15.744;2023-12-20T04:24:58;23.97;;;2.10;;
2772;SDS011;1394;47.044;15.744;2023-12-20T04:27:25;24.87;;;3.00;;
2772;SDS011;1394;47.044;15.744;2023-12-20T04:29:55;25.30;;;2.90;;
2772;SDS011;1394;47.044;15.744;2023-12-20T04:32:22;25.37;;;2.83;;
2772;SDS011;1394;47.044;15.744;2023-12-20T04:34:50;23.80;;;2.33;;
2772;SDS011;1394;47.044;15.744;2023-12-20T04:37:17;24.40;;;2.63;;
2772;SDS011;1394;47.044;15.744;2023-12-20T04:39:45;24.67;;;3.30;;
2772;SDS011;1394;47.044;15.744;2023-12-20T04:42:26;24.60;;;2.37;;
2772;SDS011;1394;47.044;15.744;2023-12-20T04:44:55;24.67;;;2.47;;
2772;SDS011;1394;47.044;15.744;2023-12-20T04:47:25;24.60;;;2.40;;
2772;SDS011;1394;47.044;15.744;2023-12-20T04:49:52;23.67;;;2.13;;
2772;SDS011;1394;47.044;15.744;2023-12-20T04:52:19;23.67;;;2.33;;
2772;SDS011;1394;47.044;15.744;2023-12-20T04:54:48;24.57;;;2.30;;
2772;SDS011;1394;47.044;15.744;2023-12-20T04:57:16;24.00;;;2.20;;
2772;SDS011;1394;47.044;15.744;2023-12-20T04:59:43;23.70;;;2.10;;
2772;SDS011;1394;47.044;15.744;2023-12-20T05:02:10;23.97;;;2.37;;
2772;SDS011;1394;47.044;15.744;2023-12-20T05:04:38;23.70;;;2.40;;
2772;SDS011;1394;47.044;15.744;2023-12-20T05:07:06;23.70;;;2.27;;
2772;SDS011;1394;47.044;15.744;2023-12-20T05:09:33;24.40;;;2.53;;
2772;SDS011;1394;47.044;15.744;2023-12-20T05:12:02;24.53;;;2.70;;
2772;SDS011;1394;47.044;15.744;2023-12-20T05:14:30;24.00;;;2.50;;
2772;SDS011;1394;47.044;15.744;2023-12-20T05:16:57;24.23;;;2.30;;
2772;SDS011;1394;47.044;15.744;2023-12-20T05:19:25;23.40;;;1.80;;
2772;SDS011;1394;47.044;15.744;2023-12-20T05:21:52;23.60;;;2.03;;
2772;SDS011;1394;47.044;15.744;2023-12-20T05:24:19;23.97;;;2.13;;
2772;SDS011;1394;47.044;15.744;2023-12-20T05:26:46;26.73;;;2.27;;
2772;SDS011;1394;47.044;15.744;2023-12-20T05:29:15;26.97;;;2.13;;
2772;SDS011;1394;47.044;15.744;2023-12-20T05:31:42;23.40;;;1.90;;
2772;SDS011;1394;47.044;15.744;2023-12-20T05:34:10;23.63;;;1.90;;
2772;SDS011;1394;47.044;15.744;2023-12-20T05:36:37;23.50;;;1.90;;
2772;SDS011;1394;47.044;15.744;2023-12-20T05:39:06;23.57;;;1.70;;
2772;SDS011;1394;47.044;15.744;2023-12-20T05:41:34;23.27;;;1.80;;
2772;SDS011;1394;47.044;15.744;2023-12-20T05:44:01;23.47;;;1.83;;
2772;SDS011;1394;47.044;15.744;2023-12-20T05:46:31;23.50;;;1.70;;
2772;SDS011;1394;47.044;15.744;2023-12-20T05:48:59;23.73;;;1.90;;
2772;SDS011;1394;47.044;15.744;2023-12-20T05:51:27;23.53;;;1.80;;
2772;SDS011;1394;47.044;15.744;2023-12-20T05:53:55;23.53;;;1.80;;
2772;SDS011;1394;47.044;15.744;2023-12-20T05:56:22;23.67;;;1.90;;
2772;SDS011;1394;47.044;15.744;2023-12-20T05:58:50;23.80;;;1.93;;
2772;SDS011;1394;47.044;15.744;2023-12-20T06:01:17;25.63;;;2.40;;
2772;SDS011;1394;47.044;15.744;2023-12-20T06:03:48;24.30;;;2.37;;
2772;SDS011;1394;47.044;15.744;2023-12-20T06:06:15;24.87;;;3.00;;
2772;SDS011;1394;47.044;15.744;2023-12-20T06:08:42;24.30;;;2.63;;
2772;SDS011;1394;47.044;15.744;2023-12-20T06:11:10;24.90;;;2.43;;
2772;SDS011;1394;47.044;15.744;2023-12-20T06:13:37;24.07;;;2.40;;
2772;SDS011;1394;47.044;15.744;2023-12-20T06:16:05;24.70;;;3.20;;
2772;SDS011;1394;47.044;15.744;2023-12-20T06:18:33;24.20;;;2.40;;
2772;SDS011;1394;47.044;15.744;2023-12-20T06:21:03;24.17;;;2.40;;
2772;SDS011;1394;47.044;15.744;2023-12-20T06:23:32;24.67;;;2.47;;
2772;SDS011;1394;47.044;15.744;2023-12-20T06:25:59;24.60;;;2.77;;
2772;SDS011;1394;47.044;15.744;2023-12-20T06:28:26;24.60;;;2.37;;
2772;SDS011;1394;47.044;15.744;2023-12-20T06:30:56;24.50;;;2.83;;
2772;SDS011;1394;47.044;15.744;2023-12-20T06:33:23;24.30;;;2.63;;
2772;SDS011;1394;47.044;15.744;2023-12-20T06:35:50;24.07;;;2.40;;
2772;SDS011;1394;47.044;15.744;2023-12-20T06:38:20;24.57;;;2.90;;
2772;SDS011;1394;47.044;15.744;2023-12-20T06:40:47;27.83;;;2.60;;
2772;SDS011;1394;47.044;15.744;2023-12-20T06:43:16;24.77;;;3.10;;
2772;SDS011;1394;47.044;15.744;2023-12-20T06:45:43;26.43;;;3.53;;
2772;SDS011;1394;47.044;15.744;2023-12-20T06:48:10;24.43;;;2.50;;
2772;SDS011;1394;47.044;15.744;2023-12-20T06:50:38;24.60;;;2.50;;
2772;SDS011;1394;47.044;15.744;2023-12-20T06:53:05;24.87;;;2.60;;
2772;SDS011;1394;47.044;15.744;2023-12-20T06:55:34;25.97;;;2.40;;
2772;SDS011;1394;47.044;15.744;2023-12-20T06:58:03;24.20;;;2.70;;
2772;SDS011;1394;47.044;15.744;2023-12-20T07:00:30;24.43;;;2.53;;
2772;SDS011;1394;47.044;15.744;2023-12-20T07:02:57;24.73;;;2.50;;
2772;SDS011;1394;47.044;15.744;2023-12-20T07:05:25;24.17;;;2.40;;
2772;SDS011;1394;47.044;15.744;2023-12-20T07:07:52;26.40;;;2.90;;
2772;SDS011;1394;47.044;15.744;2023-12-20T07:10:20;25.17;;;2.90;;
2772;SDS011;1394;47.044;15.744;2023-12-20T07:12:49;25.40;;;3.50;;
2772;SDS011;1394;47.044;15.744;2023-12-20T07:15:17;26.67;;;5.17;;
2772;SDS011;1394;47.044;15.744;2023-12-20T07:17:44;25.80;;;3.87;;
2772;SDS011;1394;47.044;15.744;2023-12-20T07:20:12;26.00;;;3.47;;
2772;SDS011;1394;47.044;15.744;2023-12-20T07:22:40;24.53;;;3.00;;
2772;SDS011;1394;47.044;15.744;2023-12-20T07:25:07;25.67;;;3.13;;
2772;SDS011;1394;47.044;15.744;2023-12-20T07:27:38;24.47;;;3.10;;
2772;SDS011;1394;47.044;15.744;2023-12-20T07:30:10;25.80;;;3.50;;
2772;SDS011;1394;47.044;15.744;2023-12-20T07:32:38;25.07;;;2.93;;
2772;SDS011;1394;47.044;15.744;2023-12-20T07:35:06;25.20;;;3.30;;
2772;SDS011;1394;47.044;15.744;2023-12-20T07:37:33;25.00;;;3.23;;
2772;SDS011;1394;47.044;15.744;2023-12-20T07:40:06;24.13;;;2.50;;
2772;SDS011;1394;47.044;15.744;2023-12-20T07:42:34;24.00;;;2.40;;
2772;SDS011;1394;47.044;15.744;2023-12-20T07:45:01;24.53;;;2.53;;
2772;SDS011;1394;47.044;15.744;2023-12-20T07:47:30;24.57;;;2.63;;
2772;SDS011;1394;47.044;15.744;2023-12-20T07:49:57;24.23;;;2.80;;
2772;SDS011;1394;47.044;15.744;2023-12-20T07:52:27;23.80;;;2.47;;
2772;SDS011;1394;47.044;15.744;2023-12-20T07:54:55;24.77;;;2.60;;
2772;SDS011;1394;47.044;15.744;2023-12-20T07:57:23;24.47;;;2.57;;
2772;SDS011;1394;47.044;15.744;2023-12-20T07:59:50;25.20;;;2.93;;
2772;SDS011;1394;47.044;15.744;2023-12-20T08:02:17;24.40;;;2.83;;
2772;SDS011;1394;47.044;15.744;2023-12-20T08:04:46;24.20;;;2.70;;
2772;SDS011;1394;47.044;15.744;2023-12-20T08:07:14;25.00;;;2.60;;
2772;SDS011;1394;47.044;15.744;2023-12-20T08:09:41;24.17;;;2.67;;
2772;SDS011;1394;47.044;15.744;2023-12-20T08:12:08;25.37;;;3.03;;
2772;SDS011;1394;47.044;15.744;2023-12-20T08:14:38;24.90;;;2.97;;
2772;SDS011;1394;47.044;15.744;2023-12-20T08:17:07;24.70;;;3.17;;
2772;SDS011;1394;47.044;15.744;2023-12-20T08:19:36;24.03;;;2.73;;
2772;SDS011;1394;47.044;15.744;2023-12-20T08:22:04;25.37;;;2.63;;
2772;SDS011;1394;47.044;15.744;2023-12-20T08:24:32;24.23;;;2.60;;
2772;SDS011;1394;47.044;15.744;2023-12-20T08:26:59;24.50;;;2.93;;
2772;SDS011;1394;47.044;15.744;2023-12-20T08:29:27;24.50;;;2.73;;
2772;SDS011;1394;47.044;15.744;2023-12-20T08:31:54;24.77;;;2.80;;
2772;SDS011;1394;47.044;15.744;2023-12-20T08:34:22;24.70;;;3.20;;
2772;SDS011;1394;47.044;15.744;2023-12-20T08:36:50;24.40;;;2.80;;
2772;SDS011;1394;47.044;15.744;2023-12-20T08:39:22;25.47;;;4.00;;
2772;SDS011;1394;47.044;15.744;2023-12-20T08:41:50;28.23;;;7.57;;
2772;SDS011;1394;47.044;15.744;2023-12-20T08:44:17;25.83;;;4.73;;
2772;SDS011;1394;47.044;15.744;2023-12-20T08:46:44;24.63;;;3.43;;
2772;SDS011;1394;47.044;15.744;2023-12-20T08:49:11;24.70;;;3.70;;
2772;SDS011;1394;47.044;15.744;2023-12-20T08:51:39;25.80;;;3.23;;
2772;SDS011;1394;47.044;15.744;2023-12-20T08:54:07;24.40;;;2.87;;
2772;SDS011;1394;47.044;15.744;2023-12-20T08:56:35;24.20;;;3.00;;
2772;SDS011;1394;47.044;15.744;2023-12-20T08:59:03;25.20;;;3.20;;
2772;SDS011;1394;47.044;15.744;2023-12-20T09:01:33;25.03;;;3.47;;
2772;SDS011;1394;47.044;15.744;2023-12-20T09:04:01;25.23;;;3.47;;
2772;SDS011;1394;47.044;15.744;2023-12-20T09:06:28;25.50;;;3.77;;
2772;SDS011;1394;47.044;15.744;2023-12-20T09:08:56;25.70;;;3.93;;
2772;SDS011;1394;47.044;15.744;2023-12-20T09:11:33;24.70;;;3.30;;
2772;SDS011;1394;47.044;15.744;2023-12-20T09:14:03;24.90;;;3.13;;
2772;SDS011;1394;47.044;15.744;2023-12-20T09:16:32;24.77;;;3.37;;
2772;SDS011;1394;47.044;15.744;2023-12-20T09:19:00;25.10;;;3.47;;
2772;SDS011;1394;47.044;15.744;2023-12-20T09:21:28;24.30;;;3.30;;
2772;SDS011;1394;47.044;15.744;2023-12-20T09:23:58;24.47;;;2.83;;
2772;SDS011;1394;47.044;15.744;2023-12-20T09:26:25;24.53;;;2.80;;
2772;SDS011;1394;47.044;15.744;2023-12-20T09:28:52;24.40;;;2.60;;
2772;SDS011;1394;47.044;15.744;2023-12-20T09:31:21;23.90;;;2.70;;
2772;SDS011;1394;47.044;15.744;2023-12-20T09:33:49;24.17;;;2.40;;
2772;SDS011;1394;47.044;15.744;2023-12-20T09:36:18;24.17;;;2.77;;
2772;SDS011;1394;47.044;15.744;2023-12-20T09:38:45;23.77;;;2.30;;
2772;SDS011;1394;47.044;15.744;2023-12-20T09:41:13;24.10;;;2.37;;
2772;SDS011;1394;47.044;15.744;2023-12-20T09:43:41;24.07;;;2.60;;
2772;SDS011;1394;47.044;15.744;2023-12-20T09:46:09;24.60;;;3.27;;
2772;SDS011;1394;47.044;15.744;2023-12-20T09:48:41;25.00;;;3.20;;
2772;SDS011;1394;47.044;15.744;2023-12-20T09:51:09;25.43;;;3.10;;
2772;SDS011;1394;47.044;15.744;2023-12-20T09:53:38;24.77;;;3.60;;
2772;SDS011;1394;47.044;15.744;2023-12-20T09:56:07;24.20;;;2.97;;
2772;SDS011;1394;47.044;15.744;2023-12-20T09:58:36;24.67;;;3.50;;
2772;SDS011;1394;47.044;15.744;2023-12-20T10:01:04;29.27;;;6.40;;
2772;SDS011;1394;47.044;15.744;2023-12-20T10:03:30;36.30;;;12.20;;
2772;SDS011;1394;47.044;15.744;2023-12-20T10:05:59;26.03;;;4.87;;
2772;SDS011;1394;47.044;15.744;2023-12-20T10:08:28;27.13;;;4.27;;
2772;SDS011;1394;47.044;15.744;2023-12-20T10:10:57;25.40;;;4.30;;
2772;SDS011;1394;47.044;15.744;2023-12-20T10:13:27;24.80;;;3.80;;
2772;SDS011;1394;47.044;15.744;2023-12-20T10:15:55;26.07;;;4.80;;
2772;SDS011;1394;47.044;15.744;2023-12-20T10:18:22;25.00;;;3.47;;
2772;SDS011;1394;47.044;15.744;2023-12-20T10:20:49;25.27;;;3.73;;
2772;SDS011;1394;47.044;15.744;2023-12-20T10:23:18;24.97;;;3.43;;
2772;SDS011;1394;47.044;15.744;2023-12-20T10:25:55;26.40;;;3.53;;
2772;SDS011;1394;47.044;15.744;2023-12-20T10:28:23;25.73;;;3.60;;
2772;SDS011;1394;47.044;15.744;2023-12-20T10:30:53;25.43;;;3.90;;
2772;SDS011;1394;47.044;15.744;2023-12-20T10:33:24;25.67;;;3.70;;
2772;SDS011;1394;47.044;15.744;2023-12-20T10:35:53;25.73;;;3.90;;
2772;SDS011;1394;47.044;15.744;2023-12-20T10:38:24;25.10;;;3.67;;
2772;SDS011;1394;47.044;15.744;2023-12-20T10:40:55;25.67;;;3.73;;
2772;SDS011;1394;47.044;15.744;2023-12-20T10:43:24;26.60;;;4.10;;
2772;SDS011;1394;47.044;15.744;2023-12-20T10:45:53;25.83;;;3.93;;
2772;SDS011;1394;47.044;15.744;2023-12-20T10:48:20;25.40;;;3.30;;
2772;SDS011;1394;47.044;15.744;2023-12-20T10:50:54;25.80;;;3.40;;
2772;SDS011;1394;47.044;15.744;2023-12-20T10:53:25;26.60;;;4.10;;
2772;SDS011;1394;47.044;15.744;2023-12-20T10:55:52;25.87;;;3.60;;
2772;SDS011;1394;47.044;15.744;2023-12-20T10:58:22;25.53;;;3.70;;
2772;SDS011;1394;47.044;15.744;2023-12-20T11:00:51;25.67;;;3.43;;
2772;SDS011;1394;47.044;15.744;2023-12-20T11:03:21;25.87;;;4.17;;
2772;SDS011;1394;47.044;15.744;2023-12-20T11:05:50;27.53;;;5.00;;
2772;SDS011;1394;47.044;15.744;2023-12-20T11:08:25;26.93;;;4.93;;
2772;SDS011;1394;47.044;15.744;2023-12-20T11:10:55;25.93;;;4.07;;
2772;SDS011;1394;47.044;15.744;2023-12-20T11:13:26;26.20;;;4.00;;
2772;SDS011;1394;47.044;15.744;2023-12-20T11:15:54;25.60;;;3.50;;
2772;SDS011;1394;47.044;15.744;2023-12-20T11:18:22;26.07;;;3.87;;
2772;SDS011;1394;47.044;15.744;2023-12-20T11:20:55;25.97;;;4.03;;
2772;SDS011;1394;47.044;15.744;2023-12-20T11:23:24;25.30;;;3.47;;
2772;SDS011;1394;47.044;15.744;2023-12-20T11:25:51;25.30;;;3.70;;
2772;SDS011;1394;47.044;15.744;2023-12-20T11:28:22;27.40;;;4.00;;
2772;SDS011;1394;47.044;15.744;2023-12-20T11:30:50;25.67;;;4.30;;
2772;SDS011;1394;47.044;15.744;2023-12-20T11:33:21;25.90;;;3.97;;
2772;SDS011;1394;47.044;15.744;2023-12-20T11:35:50;26.13;;;4.27;;
2772;SDS011;1394;47.044;15.744;2023-12-20T11:38:20;26.53;;;4.40;;
2772;SDS011;1394;47.044;15.744;2023-12-20T11:40:48;27.00;;;4.37;;
2772;SDS011;1394;47.044;15.744;2023-12-20T11:43:30;25.93;;;4.43;;
2772;SDS011;1394;47.044;15.744;2023-12-20T11:46:04;26.80;;;4.33;;
2772;SDS011;1394;47.044;15.744;2023-12-20T11:48:32;28.30;;;4.20;;
2772;SDS011;1394;47.044;15.744;2023-12-20T11:51:00;26.57;;;4.30;;
2772;SDS011;1394;47.044;15.744;2023-12-20T11:53:29;27.10;;;4.50;;
2772;SDS011;1394;47.044;15.744;2023-12-20T11:55:57;27.17;;;3.93;;
2772;SDS011;1394;47.044;15.744;2023-12-20T11:58:25;25.27;;;3.50;;
2772;SDS011;1394;47.044;15.744;2023-12-20T12:00:56;25.90;;;3.67;;
2772;SDS011;1394;47.044;15.744;2023-12-20T12:03:26;25.47;;;3.97;;
2772;SDS011;1394;47.044;15.744;2023-12-20T12:05:53;26.83;;;4.00;;
2772;SDS011;1394;47.044;15.744;2023-12-20T12:08:21;25.77;;;3.83;;
2772;SDS011;1394;47.044;15.744;2023-12-20T12:10:50;25.53;;;3.53;;
2772;SDS011;1394;47.044;15.744;2023-12-20T12:13:17;26.37;;;3.90;;
2772;SDS011;1394;47.044;15.744;2023-12-20T12:15:44;26.40;;;4.50;;
2772;SDS011;1394;47.044;15.744;2023-12-20T12:18:18;26.63;;;3.73;;
2772;SDS011;1394;47.044;15.744;2023-12-20T12:20:46;26.30;;;3.83;;
2772;SDS011;1394;47.044;15.744;2023-12-20T12:23:13;29.33;;;4.03;;
2772;SDS011;1394;47.044;15.744;2023-12-20T12:25:41;25.13;;;3.40;;
2772;SDS011;1394;47.044;15.744;2023-12-20T12:28:10;26.27;;;4.33;;
2772;SDS011;1394;47.044;15.744;2023-12-20T12:30:40;26.57;;;4.50;;
2772;SDS011;1394;47.044;15.744;2023-12-20T12:33:07;26.83;;;4.17;;
2772;SDS011;1394;47.044;15.744;2023-12-20T12:35:37;26.30;;;3.70;;
2772;SDS011;1394;47.044;15.744;2023-12-20T12:38:06;26.20;;;4.00;;
2772;SDS011;1394;47.044;15.744;2023-12-20T12:40:35;28.90;;;5.60;;
2772;SDS011;1394;47.044;15.744;2023-12-20T12:43:02;30.20;;;8.80;;
2772;SDS011;1394;47.044;15.744;2023-12-20T12:45:31;28.33;;;7.50;;
2772;SDS011;1394;47.044;15.744;2023-12-20T12:47:59;27.97;;;6.13;;
2772;SDS011;1394;47.044;15.744;2023-12-20T12:50:27;28.07;;;6.63;;
2772;SDS011;1394;47.044;15.744;2023-12-20T12:52:59;28.33;;;5.97;;
2772;SDS011;1394;47.044;15.744;2023-12-20T12:55:26;28.90;;;6.90;;
2772;SDS011;1394;47.044;15.744;2023-12-20T12:57:54;31.23;;;7.77;;
2772;SDS011;1394;47.044;15.744;2023-12-20T13:00:21;29.37;;;7.23;;
2772;SDS011;1394;47.044;15.744;2023-12-20T13:02:50;32.57;;;8.20;;
2772;SDS011;1394;47.044;15.744;2023-12-20T13:05:17;32.03;;;7.47;;
2772;SDS011;1394;47.044;15.744;2023-12-20T13:07:44;28.40;;;7.30;;
2772;SDS011;1394;47.044;15.744;2023-12-20T13:10:13;27.87;;;6.37;;
2772;SDS011;1394;47.044;15.744;2023-12-20T13:12:42;29.70;;;7.83;;
2772;SDS011;1394;47.044;15.744;2023-12-20T13:15:11;27.70;;;6.37;;
2772;SDS011;1394;47.044;15.744;2023-12-20T13:17:41;26.97;;;4.97;;
2772;SDS011;1394;47.044;15.744;2023-12-20T13:20:11;28.30;;;3.77;;
2772;SDS011;1394;47.044;15.744;2023-12-20T13:22:39;26.53;;;3.90;;
2772;SDS011;1394;47.044;15.744;2023-12-20T13:25:06;27.20;;;4.80;;
2772;SDS011;1394;47.044;15.744;2023-12-20T13:27:36;28.47;;;6.43;;
2772;SDS011;1394;47.044;15.744;2023-12-20T13:30:05;29.90;;;8.80;;
2772;SDS011;1394;47.044;15.744;2023-12-20T13:32:32;31.17;;;10.27;;
2772;SDS011;1394;47.044;15.744;2023-12-20T13:35:00;32.07;;;10.13;;
2772;SDS011;1394;47.044;15.744;2023-12-20T13:37:30;32.40;;;10.60;;
2772;SDS011;1394;47.044;15.744;2023-12-20T13:39:57;32.30;;;9.70;;
2772;SDS011;1394;47.044;15.744;2023-12-20T13:42:25;36.53;;;12.40;;
2772;SDS011;1394;47.044;15.744;2023-12-20T13:44:56;29.57;;;8.53;;
2772;SDS011;1394;47.044;15.744;2023-12-20T13:47:25;28.60;;;7.30;;
2772;SDS011;1394;47.044;15.744;2023-12-20T13:49:52;30.20;;;8.93;;
2772;SDS011;1394;47.044;15.744;2023-12-20T13:52:21;28.70;;;6.73;;
2772;SDS011;1394;47.044;15.744;2023-12-20T13:54:48;28.30;;;4.67;;
2772;SDS011;1394;47.044;15.744;2023-12-20T13:57:15;26.40;;;3.83;;
2772;SDS011;1394;47.044;15.744;2023-12-20T13:59:43;26.03;;;3.80;;
2772;SDS011;1394;47.044;15.744;2023-12-20T14:02:13;26.13;;;3.90;;
2772;SDS011;1394;47.044;15.744;2023-12-20T14:04:43;25.63;;;3.53;;
2772;SDS011;1394;47.044;15.744;2023-12-20T14:07:13;26.80;;;4.33;;
2772;SDS011;1394;47.044;15.744;2023-12-20T14:09:41;25.27;;;3.47;;
2772;SDS011;1394;47.044;15.744;2023-12-20T14:12:11;25.30;;;3.40;;
2772;SDS011;1394;47.044;15.744;2023-12-20T14:14:38;25.50;;;3.80;;
2772;SDS011;1394;47.044;15.744;2023-12-20T14:17:06;26.90;;;4.53;;
2772;SDS011;1394;47.044;15.744;2023-12-20T14:19:39;26.67;;;4.50;;
2772;SDS011;1394;47.044;15.744;2023-12-20T14:22:06;28.40;;;4.00;;
2772;SDS011;1394;47.044;15.744;2023-12-20T14:24:35;25.40;;;3.60;;
2772;SDS011;1394;47.044;15.744;2023-12-20T14:27:06;26.40;;;3.70;;
2772;SDS011;1394;47.044;15.744;2023-12-20T14:29:34;24.93;;;3.80;;
2772;SDS011;1394;47.044;15.744;2023-12-20T14:32:03;26.73;;;4.53;;
2772;SDS011;1394;47.044;15.744;2023-12-20T14:34:32;26.20;;;4.80;;
2772;SDS011;1394;47.044;15.744;2023-12-20T14:37:05;25.90;;;4.50;;
2772;SDS011;1394;47.044;15.744;2023-12-20T14:39:37;29.60;;;7.17;;
2772;SDS011;1394;47.044;15.744;2023-12-20T14:42:06;27.07;;;6.13;;
2772;SDS011;1394;47.044;15.744;2023-12-20T14:44:39;27.97;;;5.80;;
2772;SDS011;1394;47.044;15.744;2023-12-20T14:47:06;27.93;;;6.10;;
2772;SDS011;1394;47.044;15.744;2023-12-20T14:49:33;27.00;;;5.53;;
2772;SDS011;1394;47.044;15.744;2023-12-20T14:52:08;26.90;;;5.70;;
2772;SDS011;1394;47.044;15.744;2023-12-20T14:54:36;27.40;;;5.90;;